sensor_id;sensor_type;location;lat;lon;timestamp;P1;durP1;ratioP1;P2;durP2;ratioP2
76606;SDS011;65498;50.916;4.698;2023-04-24T00:02:05;7.72;;;2.58;;
76606;SDS011;65498;50.916;4.698;2023-04-24T00:04:34;5.90;;;2.35;;
76606;SDS011;65498;50.916;4.698;2023-04-24T00:07:01;6.80;;;2.67;;
76606;SDS011;65498;50.916;4.698;2023-04-24T00:09:29;7.92;;;2.98;;
76606;SDS011;65498;50.916;4.698;2023-04-24T00:11:56;7.25;;;2.65;;
76606;SDS011;65498;50.916;4.698;2023-04-24T00:14:24;7.75;;;2.87;;
76606;SDS011;65498;50.916;4.698;2023-04-24T00:16:52;8.45;;;3.95;;
76606;SDS011;65498;50.916;4.698;2023-04-24T00:19:19;6.83;;;3.12;;
76606;SDS011;65498;50.916;4.698;2023-04-24T00:21:47;8.55;;;3.10;;
76606;SDS011;65498;50.916;4.698;2023-04-24T00:24:17;6.83;;;2.87;;
76606;SDS011;65498;50.916;4.698;2023-04-24T00:26:45;7.70;;;2.95;;
76606;SDS011;65498;50.916;4.698;2023-04-24T00:29:12;8.23;;;2.90;;
76606;SDS011;65498;50.916;4.698;2023-04-24T00:31:40;12.95;;;4.42;;
76606;SDS011;65498;50.916;4.698;2023-04-24T00:34:07;12.98;;;3.75;;
76606;SDS011;65498;50.916;4.698;2023-04-24T00:36:36;12.35;;;3.77;;
76606;SDS011;65498;50.916;4.698;2023-04-24T00:39:04;10.25;;;3.62;;
76606;SDS011;65498;50.916;4.698;2023-04-24T00:41:31;9.13;;;4.00;;
76606;SDS011;65498;50.916;4.698;2023-04-24T00:43:59;9.30;;;3.80;;
76606;SDS011;65498;50.916;4.698;2023-04-24T00:46:26;10.85;;;3.75;;
76606;SDS011;65498;50.916;4.698;2023-04-24T00:48:55;11.68;;;4.45;;
76606;SDS011;65498;50.916;4.698;2023-04-24T00:51:23;13.50;;;4.90;;
76606;SDS011;65498;50.916;4.698;2023-04-24T00:53:51;12.82;;;5.55;;
76606;SDS011;65498;50.916;4.698;2023-04-24T00:56:18;8.53;;;4.08;;
76606;SDS011;65498;50.916;4.698;2023-04-24T00:58:46;11.57;;;4.28;;
76606;SDS011;65498;50.916;4.698;2023-04-24T01:01:14;11.22;;;3.90;;
76606;SDS011;65498;50.916;4.698;2023-04-24T01:03:42;10.95;;;4.37;;
76606;SDS011;65498;50.916;4.698;2023-04-24T01:06:10;11.70;;;3.92;;
76606;SDS011;65498;50.916;4.698;2023-04-24T01:08:38;8.20;;;3.92;;
76606;SDS011;65498;50.916;4.698;2023-04-24T01:11:07;10.00;;;3.67;;
76606;SDS011;65498;50.916;4.698;2023-04-24T01:13:35;7.85;;;3.62;;
76606;SDS011;65498;50.916;4.698;2023-04-24T01:16:02;14.43;;;4.33;;
76606;SDS011;65498;50.916;4.698;2023-04-24T01:18:30;9.25;;;4.33;;
76606;SDS011;65498;50.916;4.698;2023-04-24T01:20:58;11.43;;;3.92;;
76606;SDS011;65498;50.916;4.698;2023-04-24T01:23:26;9.68;;;4.10;;
76606;SDS011;65498;50.916;4.698;2023-04-24T01:25:54;9.68;;;3.47;;
76606;SDS011;65498;50.916;4.698;2023-04-24T01:28:22;11.38;;;3.90;;
76606;SDS011;65498;50.916;4.698;2023-04-24T01:30:49;11.10;;;3.62;;
76606;SDS011;65498;50.916;4.698;2023-04-24T01:33:17;7.97;;;3.50;;
76606;SDS011;65498;50.916;4.698;2023-04-24T01:35:46;11.63;;;4.00;;
76606;SDS011;65498;50.916;4.698;2023-04-24T01:38:15;9.20;;;4.67;;
76606;SDS011;65498;50.916;4.698;2023-04-24T01:40:42;9.03;;;3.95;;
76606;SDS011;65498;50.916;4.698;2023-04-24T01:43:11;9.33;;;3.55;;
76606;SDS011;65498;50.916;4.698;2023-04-24T01:45:39;9.85;;;3.52;;
76606;SDS011;65498;50.916;4.698;2023-04-24T01:48:06;8.70;;;3.55;;
76606;SDS011;65498;50.916;4.698;2023-04-24T01:50:34;9.48;;;3.60;;
76606;SDS011;65498;50.916;4.698;2023-04-24T01:53:02;7.33;;;3.45;;
76606;SDS011;65498;50.916;4.698;2023-04-24T01:55:30;8.75;;;3.47;;
76606;SDS011;65498;50.916;4.698;2023-04-24T01:57:58;9.70;;;3.50;;
76606;SDS011;65498;50.916;4.698;2023-04-24T02:00:28;8.83;;;3.77;;
76606;SDS011;65498;50.916;4.698;2023-04-24T02:02:56;9.10;;;3.80;;
76606;SDS011;65498;50.916;4.698;2023-04-24T02:05:23;8.98;;;3.60;;
76606;SDS011;65498;50.916;4.698;2023-04-24T02:07:51;7.75;;;3.30;;
76606;SDS011;65498;50.916;4.698;2023-04-24T02:10:18;6.55;;;3.20;;
76606;SDS011;65498;50.916;4.698;2023-04-24T02:12:46;9.70;;;3.72;;
76606;SDS011;65498;50.916;4.698;2023-04-24T02:15:13;9.18;;;3.45;;
76606;SDS011;65498;50.916;4.698;2023-04-24T02:17:41;8.20;;;3.50;;
76606;SDS011;65498;50.916;4.698;2023-04-24T02:20:08;7.72;;;3.37;;
76606;SDS011;65498;50.916;4.698;2023-04-24T02:22:36;9.98;;;3.77;;
76606;SDS011;65498;50.916;4.698;2023-04-24T02:25:04;7.67;;;3.40;;
76606;SDS011;65498;50.916;4.698;2023-04-24T02:27:33;9.43;;;4.33;;
76606;SDS011;65498;50.916;4.698;2023-04-24T02:30:01;8.20;;;3.62;;
76606;SDS011;65498;50.916;4.698;2023-04-24T02:32:29;6.70;;;2.90;;
76606;SDS011;65498;50.916;4.698;2023-04-24T02:34:56;6.50;;;3.20;;
76606;SDS011;65498;50.916;4.698;2023-04-24T02:37:25;9.85;;;3.50;;
76606;SDS011;65498;50.916;4.698;2023-04-24T02:39:52;8.10;;;3.00;;
76606;SDS011;65498;50.916;4.698;2023-04-24T02:42:20;7.35;;;2.98;;
76606;SDS011;65498;50.916;4.698;2023-04-24T02:44:47;7.92;;;2.75;;
76606;SDS011;65498;50.916;4.698;2023-04-24T02:47:16;7.85;;;3.22;;
76606;SDS011;65498;50.916;4.698;2023-04-24T02:49:44;6.40;;;2.95;;
76606;SDS011;65498;50.916;4.698;2023-04-24T02:52:11;7.50;;;3.37;;
76606;SDS011;65498;50.916;4.698;2023-04-24T02:54:40;9.18;;;3.33;;
76606;SDS011;65498;50.916;4.698;2023-04-24T02:57:08;7.03;;;3.10;;
76606;SDS011;65498;50.916;4.698;2023-04-24T02:59:35;6.60;;;2.98;;
76606;SDS011;65498;50.916;4.698;2023-04-24T03:02:03;7.30;;;3.40;;
76606;SDS011;65498;50.916;4.698;2023-04-24T03:04:31;6.00;;;2.75;;
76606;SDS011;65498;50.916;4.698;2023-04-24T03:06:58;7.08;;;2.85;;
76606;SDS011;65498;50.916;4.698;2023-04-24T03:09:27;5.90;;;3.17;;
76606;SDS011;65498;50.916;4.698;2023-04-24T03:11:54;6.08;;;3.00;;
76606;SDS011;65498;50.916;4.698;2023-04-24T03:14:22;7.30;;;3.40;;
76606;SDS011;65498;50.916;4.698;2023-04-24T03:16:49;6.75;;;2.75;;
76606;SDS011;65498;50.916;4.698;2023-04-24T03:19:17;6.50;;;2.60;;
76606;SDS011;65498;50.916;4.698;2023-04-24T03:21:44;7.67;;;3.00;;
76606;SDS011;65498;50.916;4.698;2023-04-24T03:24:12;6.75;;;3.10;;
76606;SDS011;65498;50.916;4.698;2023-04-24T03:26:39;6.87;;;2.87;;
76606;SDS011;65498;50.916;4.698;2023-04-24T03:29:07;8.05;;;3.00;;
76606;SDS011;65498;50.916;4.698;2023-04-24T03:31:34;7.70;;;2.90;;
76606;SDS011;65498;50.916;4.698;2023-04-24T03:34:02;6.55;;;2.77;;
76606;SDS011;65498;50.916;4.698;2023-04-24T03:36:29;5.62;;;2.80;;
76606;SDS011;65498;50.916;4.698;2023-04-24T03:38:57;7.25;;;3.00;;
76606;SDS011;65498;50.916;4.698;2023-04-24T03:41:25;7.15;;;2.77;;
76606;SDS011;65498;50.916;4.698;2023-04-24T03:43:52;6.00;;;2.58;;
76606;SDS011;65498;50.916;4.698;2023-04-24T03:46:20;5.47;;;2.33;;
76606;SDS011;65498;50.916;4.698;2023-04-24T03:48:47;7.65;;;2.60;;
76606;SDS011;65498;50.916;4.698;2023-04-24T03:51:15;5.47;;;2.50;;
76606;SDS011;65498;50.916;4.698;2023-04-24T03:53:43;6.67;;;2.60;;
76606;SDS011;65498;50.916;4.698;2023-04-24T03:56:10;6.90;;;2.77;;
76606;SDS011;65498;50.916;4.698;2023-04-24T03:58:38;5.08;;;2.25;;
76606;SDS011;65498;50.916;4.698;2023-04-24T04:01:05;6.30;;;2.60;;
76606;SDS011;65498;50.916;4.698;2023-04-24T04:03:33;6.92;;;2.65;;
76606;SDS011;65498;50.916;4.698;2023-04-24T04:06:01;7.28;;;2.67;;
76606;SDS011;65498;50.916;4.698;2023-04-24T04:08:28;5.40;;;2.20;;
76606;SDS011;65498;50.916;4.698;2023-04-24T04:10:56;7.33;;;3.30;;
76606;SDS011;65498;50.916;4.698;2023-04-24T04:13:23;7.20;;;2.70;;
76606;SDS011;65498;50.916;4.698;2023-04-24T04:15:51;6.08;;;2.30;;
76606;SDS011;65498;50.916;4.698;2023-04-24T04:18:18;7.20;;;2.58;;
76606;SDS011;65498;50.916;4.698;2023-04-24T04:20:46;6.70;;;2.42;;
76606;SDS011;65498;50.916;4.698;2023-04-24T04:23:13;5.33;;;2.45;;
76606;SDS011;65498;50.916;4.698;2023-04-24T04:25:41;5.78;;;2.40;;
76606;SDS011;65498;50.916;4.698;2023-04-24T04:28:08;5.47;;;2.50;;
76606;SDS011;65498;50.916;4.698;2023-04-24T04:30:36;7.08;;;2.30;;
76606;SDS011;65498;50.916;4.698;2023-04-24T04:33:04;5.62;;;2.70;;
76606;SDS011;65498;50.916;4.698;2023-04-24T04:35:31;4.87;;;2.25;;
76606;SDS011;65498;50.916;4.698;2023-04-24T04:37:59;6.83;;;2.27;;
76606;SDS011;65498;50.916;4.698;2023-04-24T04:40:26;5.30;;;2.40;;
76606;SDS011;65498;50.916;4.698;2023-04-24T04:42:54;6.25;;;2.20;;
76606;SDS011;65498;50.916;4.698;2023-04-24T04:45:21;6.85;;;2.60;;
76606;SDS011;65498;50.916;4.698;2023-04-24T04:47:50;4.72;;;2.12;;
76606;SDS011;65498;50.916;4.698;2023-04-24T04:50:17;6.37;;;2.45;;
76606;SDS011;65498;50.916;4.698;2023-04-24T04:52:45;6.20;;;2.60;;
76606;SDS011;65498;50.916;4.698;2023-04-24T04:55:12;5.90;;;2.98;;
76606;SDS011;65498;50.916;4.698;2023-04-24T04:57:40;4.85;;;2.00;;
76606;SDS011;65498;50.916;4.698;2023-04-24T05:00:08;5.72;;;2.33;;
76606;SDS011;65498;50.916;4.698;2023-04-24T05:02:37;5.62;;;2.08;;
76606;SDS011;65498;50.916;4.698;2023-04-24T05:05:05;4.50;;;1.90;;
76606;SDS011;65498;50.916;4.698;2023-04-24T05:07:34;4.87;;;1.97;;
76606;SDS011;65498;50.916;4.698;2023-04-24T05:10:02;5.58;;;2.10;;
76606;SDS011;65498;50.916;4.698;2023-04-24T05:12:30;5.30;;;2.15;;
76606;SDS011;65498;50.916;4.698;2023-04-24T05:14:57;5.05;;;2.27;;
76606;SDS011;65498;50.916;4.698;2023-04-24T05:17:25;5.95;;;2.20;;
76606;SDS011;65498;50.916;4.698;2023-04-24T05:19:52;4.85;;;2.00;;
76606;SDS011;65498;50.916;4.698;2023-04-24T05:22:20;4.45;;;2.00;;
76606;SDS011;65498;50.916;4.698;2023-04-24T05:24:48;6.58;;;2.40;;
76606;SDS011;65498;50.916;4.698;2023-04-24T05:27:15;5.67;;;2.20;;
76606;SDS011;65498;50.916;4.698;2023-04-24T05:29:43;5.20;;;2.22;;
76606;SDS011;65498;50.916;4.698;2023-04-24T05:32:11;5.72;;;2.37;;
76606;SDS011;65498;50.916;4.698;2023-04-24T05:34:38;5.00;;;1.98;;
76606;SDS011;65498;50.916;4.698;2023-04-24T05:37:06;4.67;;;1.75;;
76606;SDS011;65498;50.916;4.698;2023-04-24T05:39:35;5.10;;;2.10;;
76606;SDS011;65498;50.916;4.698;2023-04-24T05:42:03;4.37;;;2.12;;
76606;SDS011;65498;50.916;4.698;2023-04-24T05:44:31;7.05;;;2.15;;
76606;SDS011;65498;50.916;4.698;2023-04-24T05:46:59;5.47;;;2.25;;
76606;SDS011;65498;50.916;4.698;2023-04-24T05:49:27;6.37;;;2.20;;
76606;SDS011;65498;50.916;4.698;2023-04-24T05:51:55;5.08;;;2.10;;
76606;SDS011;65498;50.916;4.698;2023-04-24T05:54:23;5.03;;;2.00;;
76606;SDS011;65498;50.916;4.698;2023-04-24T05:56:51;6.10;;;2.17;;
76606;SDS011;65498;50.916;4.698;2023-04-24T05:59:20;5.65;;;2.17;;
76606;SDS011;65498;50.916;4.698;2023-04-24T06:01:47;4.83;;;2.00;;
76606;SDS011;65498;50.916;4.698;2023-04-24T06:04:15;5.20;;;2.22;;
76606;SDS011;65498;50.916;4.698;2023-04-24T06:06:42;6.83;;;2.00;;
76606;SDS011;65498;50.916;4.698;2023-04-24T06:09:10;5.87;;;2.50;;
76606;SDS011;65498;50.916;4.698;2023-04-24T06:11:38;5.10;;;2.15;;
76606;SDS011;65498;50.916;4.698;2023-04-24T06:14:05;4.95;;;2.20;;
76606;SDS011;65498;50.916;4.698;2023-04-24T06:16:33;5.75;;;2.50;;
76606;SDS011;65498;50.916;4.698;2023-04-24T06:19:00;6.33;;;2.42;;
76606;SDS011;65498;50.916;4.698;2023-04-24T06:21:28;5.75;;;2.33;;
76606;SDS011;65498;50.916;4.698;2023-04-24T06:23:57;6.28;;;2.17;;
76606;SDS011;65498;50.916;4.698;2023-04-24T06:26:24;6.50;;;2.20;;
76606;SDS011;65498;50.916;4.698;2023-04-24T06:28:52;5.10;;;2.30;;
76606;SDS011;65498;50.916;4.698;2023-04-24T06:31:20;5.87;;;2.80;;
76606;SDS011;65498;50.916;4.698;2023-04-24T06:33:48;6.33;;;2.50;;
76606;SDS011;65498;50.916;4.698;2023-04-24T06:36:16;5.65;;;2.35;;
76606;SDS011;65498;50.916;4.698;2023-04-24T06:38:44;5.40;;;2.33;;
76606;SDS011;65498;50.916;4.698;2023-04-24T06:41:11;5.70;;;2.40;;
76606;SDS011;65498;50.916;4.698;2023-04-24T06:43:39;6.47;;;2.27;;
76606;SDS011;65498;50.916;4.698;2023-04-24T06:46:07;6.20;;;2.70;;
76606;SDS011;65498;50.916;4.698;2023-04-24T06:48:34;6.97;;;2.55;;
76606;SDS011;65498;50.916;4.698;2023-04-24T06:51:02;6.67;;;2.70;;
76606;SDS011;65498;50.916;4.698;2023-04-24T06:53:30;5.40;;;2.30;;
76606;SDS011;65498;50.916;4.698;2023-04-24T06:55:57;6.97;;;2.60;;
76606;SDS011;65498;50.916;4.698;2023-04-24T06:58:25;5.22;;;2.27;;
76606;SDS011;65498;50.916;4.698;2023-04-24T07:00:52;5.83;;;2.40;;
76606;SDS011;65498;50.916;4.698;2023-04-24T07:03:20;5.83;;;2.22;;
76606;SDS011;65498;50.916;4.698;2023-04-24T07:05:47;6.45;;;2.70;;
76606;SDS011;65498;50.916;4.698;2023-04-24T07:08:15;5.67;;;2.40;;
76606;SDS011;65498;50.916;4.698;2023-04-24T07:10:43;5.45;;;2.22;;
76606;SDS011;65498;50.916;4.698;2023-04-24T07:13:11;9.60;;;2.70;;
76606;SDS011;65498;50.916;4.698;2023-04-24T07:15:39;5.85;;;2.85;;
76606;SDS011;65498;50.916;4.698;2023-04-24T07:18:07;6.37;;;2.77;;
76606;SDS011;65498;50.916;4.698;2023-04-24T07:20:34;6.92;;;3.05;;
76606;SDS011;65498;50.916;4.698;2023-04-24T07:23:02;5.80;;;2.60;;
76606;SDS011;65498;50.916;4.698;2023-04-24T07:25:29;5.97;;;2.30;;
76606;SDS011;65498;50.916;4.698;2023-04-24T07:27:57;6.12;;;2.50;;
76606;SDS011;65498;50.916;4.698;2023-04-24T07:30:25;6.03;;;2.75;;
76606;SDS011;65498;50.916;4.698;2023-04-24T07:32:54;7.47;;;2.75;;
76606;SDS011;65498;50.916;4.698;2023-04-24T07:35:22;6.50;;;2.83;;
76606;SDS011;65498;50.916;4.698;2023-04-24T07:37:52;6.47;;;2.77;;
76606;SDS011;65498;50.916;4.698;2023-04-24T07:40:20;5.87;;;2.20;;
76606;SDS011;65498;50.916;4.698;2023-04-24T07:42:49;6.42;;;2.67;;
76606;SDS011;65498;50.916;4.698;2023-04-24T07:45:16;7.22;;;2.60;;
76606;SDS011;65498;50.916;4.698;2023-04-24T07:47:44;6.03;;;2.60;;
76606;SDS011;65498;50.916;4.698;2023-04-24T07:50:12;6.12;;;2.65;;
76606;SDS011;65498;50.916;4.698;2023-04-24T07:52:39;5.47;;;2.37;;
76606;SDS011;65498;50.916;4.698;2023-04-24T07:55:08;7.10;;;3.05;;
76606;SDS011;65498;50.916;4.698;2023-04-24T07:57:36;6.45;;;2.70;;
76606;SDS011;65498;50.916;4.698;2023-04-24T08:00:03;7.12;;;3.12;;
76606;SDS011;65498;50.916;4.698;2023-04-24T08:02:32;7.65;;;3.22;;
76606;SDS011;65498;50.916;4.698;2023-04-24T08:04:59;7.75;;;3.00;;
76606;SDS011;65498;50.916;4.698;2023-04-24T08:07:28;7.05;;;2.90;;
76606;SDS011;65498;50.916;4.698;2023-04-24T08:09:56;6.25;;;2.62;;
76606;SDS011;65498;50.916;4.698;2023-04-24T08:12:25;6.95;;;2.90;;
76606;SDS011;65498;50.916;4.698;2023-04-24T08:14:52;7.33;;;3.27;;
76606;SDS011;65498;50.916;4.698;2023-04-24T08:17:20;7.33;;;2.75;;
76606;SDS011;65498;50.916;4.698;2023-04-24T08:19:47;6.97;;;2.80;;
76606;SDS011;65498;50.916;4.698;2023-04-24T08:22:16;7.20;;;2.77;;
76606;SDS011;65498;50.916;4.698;2023-04-24T08:24:44;6.45;;;2.72;;
76606;SDS011;65498;50.916;4.698;2023-04-24T08:27:12;7.90;;;2.85;;
76606;SDS011;65498;50.916;4.698;2023-04-24T08:29:39;9.05;;;2.98;;
76606;SDS011;65498;50.916;4.698;2023-04-24T08:32:07;6.80;;;2.85;;
76606;SDS011;65498;50.916;4.698;2023-04-24T08:34:34;7.95;;;3.12;;
76606;SDS011;65498;50.916;4.698;2023-04-24T08:37:02;7.12;;;3.10;;
76606;SDS011;65498;50.916;4.698;2023-04-24T08:39:29;7.87;;;3.17;;
76606;SDS011;65498;50.916;4.698;2023-04-24T08:41:57;6.53;;;2.67;;
76606;SDS011;65498;50.916;4.698;2023-04-24T08:44:28;6.53;;;3.00;;
76606;SDS011;65498;50.916;4.698;2023-04-24T08:46:55;6.50;;;2.98;;
76606;SDS011;65498;50.916;4.698;2023-04-24T08:49:23;8.03;;;2.92;;
76606;SDS011;65498;50.916;4.698;2023-04-24T08:51:52;6.28;;;2.62;;
76606;SDS011;65498;50.916;4.698;2023-04-24T08:54:20;7.60;;;2.77;;
76606;SDS011;65498;50.916;4.698;2023-04-24T08:56:48;7.30;;;3.33;;
76606;SDS011;65498;50.916;4.698;2023-04-24T08:59:16;7.40;;;2.90;;
76606;SDS011;65498;50.916;4.698;2023-04-24T09:01:45;6.40;;;2.92;;
76606;SDS011;65498;50.916;4.698;2023-04-24T09:04:14;8.18;;;3.08;;
76606;SDS011;65498;50.916;4.698;2023-04-24T09:06:45;7.67;;;2.87;;
76606;SDS011;65498;50.916;4.698;2023-04-24T09:09:12;7.22;;;2.77;;
76606;SDS011;65498;50.916;4.698;2023-04-24T09:11:42;10.58;;;3.47;;
76606;SDS011;65498;50.916;4.698;2023-04-24T09:14:10;7.33;;;3.20;;
76606;SDS011;65498;50.916;4.698;2023-04-24T09:16:37;7.72;;;2.87;;
76606;SDS011;65498;50.916;4.698;2023-04-24T09:19:05;7.33;;;2.98;;
76606;SDS011;65498;50.916;4.698;2023-04-24T09:21:33;8.88;;;2.95;;
76606;SDS011;65498;50.916;4.698;2023-04-24T09:24:02;7.77;;;3.00;;
76606;SDS011;65498;50.916;4.698;2023-04-24T09:26:34;6.97;;;2.85;;
76606;SDS011;65498;50.916;4.698;2023-04-24T09:29:02;8.80;;;3.42;;
76606;SDS011;65498;50.916;4.698;2023-04-24T09:31:30;10.32;;;3.30;;
76606;SDS011;65498;50.916;4.698;2023-04-24T09:33:59;6.45;;;2.85;;
76606;SDS011;65498;50.916;4.698;2023-04-24T09:36:32;7.90;;;2.80;;
76606;SDS011;65498;50.916;4.698;2023-04-24T09:39:10;7.22;;;3.20;;
76606;SDS011;65498;50.916;4.698;2023-04-24T09:41:47;8.58;;;3.45;;
76606;SDS011;65498;50.916;4.698;2023-04-24T09:44:22;8.43;;;3.12;;
76606;SDS011;65498;50.916;4.698;2023-04-24T09:47:00;8.55;;;3.27;;
76606;SDS011;65498;50.916;4.698;2023-04-24T09:49:23;7.37;;;3.15;;
76606;SDS011;65498;50.916;4.698;2023-04-24T09:52:02;6.10;;;2.83;;
76606;SDS011;65498;50.916;4.698;2023-04-24T09:54:32;8.13;;;3.85;;
76606;SDS011;65498;50.916;4.698;2023-04-24T09:56:59;7.62;;;3.17;;
76606;SDS011;65498;50.916;4.698;2023-04-24T09:59:27;10.38;;;3.67;;
76606;SDS011;65498;50.916;4.698;2023-04-24T10:01:56;8.23;;;3.60;;
76606;SDS011;65498;50.916;4.698;2023-04-24T10:04:25;10.20;;;3.33;;
76606;SDS011;65498;50.916;4.698;2023-04-24T10:06:55;9.13;;;2.70;;
76606;SDS011;65498;50.916;4.698;2023-04-24T10:09:24;8.58;;;2.92;;
76606;SDS011;65498;50.916;4.698;2023-04-24T10:11:53;9.85;;;3.47;;
76606;SDS011;65498;50.916;4.698;2023-04-24T10:14:24;7.87;;;2.90;;
76606;SDS011;65498;50.916;4.698;2023-04-24T10:16:54;8.13;;;3.17;;
76606;SDS011;65498;50.916;4.698;2023-04-24T10:19:25;6.78;;;2.40;;
76606;SDS011;65498;50.916;4.698;2023-04-24T10:21:52;6.40;;;2.87;;
76606;SDS011;65498;50.916;4.698;2023-04-24T10:24:21;6.95;;;2.90;;
76606;SDS011;65498;50.916;4.698;2023-04-24T10:26:49;9.00;;;3.15;;
76606;SDS011;65498;50.916;4.698;2023-04-24T10:29:17;8.45;;;3.02;;
76606;SDS011;65498;50.916;4.698;2023-04-24T10:31:47;9.50;;;3.10;;
76606;SDS011;65498;50.916;4.698;2023-04-24T10:34:15;6.90;;;2.72;;
76606;SDS011;65498;50.916;4.698;2023-04-24T10:36:47;8.18;;;2.87;;
76606;SDS011;65498;50.916;4.698;2023-04-24T10:39:16;6.72;;;2.50;;
76606;SDS011;65498;50.916;4.698;2023-04-24T10:41:48;7.50;;;2.67;;
76606;SDS011;65498;50.916;4.698;2023-04-24T10:44:16;7.03;;;2.90;;
76606;SDS011;65498;50.916;4.698;2023-04-24T10:46:44;6.78;;;2.90;;
76606;SDS011;65498;50.916;4.698;2023-04-24T10:49:14;7.78;;;3.25;;
76606;SDS011;65498;50.916;4.698;2023-04-24T10:51:50;7.42;;;3.22;;
76606;SDS011;65498;50.916;4.698;2023-04-24T10:54:26;7.78;;;2.85;;
76606;SDS011;65498;50.916;4.698;2023-04-24T11:00:09;5.90;;;2.52;;
76606;SDS011;65498;50.916;4.698;2023-04-24T11:02:24;7.20;;;2.35;;
76606;SDS011;65498;50.916;4.698;2023-04-24T11:04:51;7.15;;;2.62;;
76606;SDS011;65498;50.916;4.698;2023-04-24T11:07:19;7.62;;;2.50;;
76606;SDS011;65498;50.916;4.698;2023-04-24T11:09:48;6.45;;;2.60;;
76606;SDS011;65498;50.916;4.698;2023-04-24T11:12:18;6.22;;;2.52;;
76606;SDS011;65498;50.916;4.698;2023-04-24T11:20:07;6.15;;;2.40;;
76606;SDS011;65498;50.916;4.698;2023-04-24T11:22:37;7.22;;;2.52;;
76606;SDS011;65498;50.916;4.698;2023-04-24T11:25:08;6.37;;;2.55;;
76606;SDS011;65498;50.916;4.698;2023-04-24T11:27:41;5.30;;;2.40;;
76606;SDS011;65498;50.916;4.698;2023-04-24T11:30:12;8.93;;;3.05;;
76606;SDS011;65498;50.916;4.698;2023-04-24T11:32:42;7.30;;;2.47;;
76606;SDS011;65498;50.916;4.698;2023-04-24T11:37:46;7.67;;;2.40;;
76606;SDS011;65498;50.916;4.698;2023-04-24T11:40:16;5.92;;;2.40;;
76606;SDS011;65498;50.916;4.698;2023-04-24T11:42:53;6.60;;;2.20;;
76606;SDS011;65498;50.916;4.698;2023-04-24T11:45:22;8.40;;;2.52;;
76606;SDS011;65498;50.916;4.698;2023-04-24T11:47:51;7.05;;;2.52;;
76606;SDS011;65498;50.916;4.698;2023-04-24T11:50:21;6.97;;;2.80;;
76606;SDS011;65498;50.916;4.698;2023-04-24T11:52:51;7.33;;;2.58;;
76606;SDS011;65498;50.916;4.698;2023-04-24T11:57:53;7.15;;;2.77;;
76606;SDS011;65498;50.916;4.698;2023-04-24T12:00:26;6.95;;;2.50;;
76606;SDS011;65498;50.916;4.698;2023-04-24T12:03:08;6.10;;;2.60;;
76606;SDS011;65498;50.916;4.698;2023-04-24T12:05:37;7.15;;;2.60;;
76606;SDS011;65498;50.916;4.698;2023-04-24T12:08:06;7.42;;;2.47;;
76606;SDS011;65498;50.916;4.698;2023-04-24T12:10:33;6.53;;;2.42;;
76606;SDS011;65498;50.916;4.698;2023-04-24T12:13:01;5.97;;;2.27;;
76606;SDS011;65498;50.916;4.698;2023-04-24T12:15:29;5.95;;;2.42;;
76606;SDS011;65498;50.916;4.698;2023-04-24T12:17:57;6.55;;;2.47;;
76606;SDS011;65498;50.916;4.698;2023-04-24T12:20:26;6.28;;;2.85;;
76606;SDS011;65498;50.916;4.698;2023-04-24T12:22:55;7.95;;;2.65;;
76606;SDS011;65498;50.916;4.698;2023-04-24T12:25:28;7.45;;;2.50;;
76606;SDS011;65498;50.916;4.698;2023-04-24T12:30:39;6.87;;;2.90;;
76606;SDS011;65498;50.916;4.698;2023-04-24T12:33:09;5.87;;;2.20;;
76606;SDS011;65498;50.916;4.698;2023-04-24T12:35:39;6.70;;;2.58;;
76606;SDS011;65498;50.916;4.698;2023-04-24T12:40:34;5.12;;;2.30;;
76606;SDS011;65498;50.916;4.698;2023-04-24T12:43:12;6.17;;;2.92;;
76606;SDS011;65498;50.916;4.698;2023-04-24T12:48:10;8.95;;;3.15;;
76606;SDS011;65498;50.916;4.698;2023-04-24T12:50:39;6.50;;;2.42;;
76606;SDS011;65498;50.916;4.698;2023-04-24T12:53:08;5.30;;;2.40;;
76606;SDS011;65498;50.916;4.698;2023-04-24T12:55:36;6.20;;;2.50;;
76606;SDS011;65498;50.916;4.698;2023-04-24T12:58:04;6.05;;;2.35;;
76606;SDS011;65498;50.916;4.698;2023-04-24T13:00:31;6.87;;;2.72;;
76606;SDS011;65498;50.916;4.698;2023-04-24T13:02:59;6.92;;;3.17;;
76606;SDS011;65498;50.916;4.698;2023-04-24T13:05:28;6.53;;;2.50;;
76606;SDS011;65498;50.916;4.698;2023-04-24T13:07:55;6.00;;;2.33;;
76606;SDS011;65498;50.916;4.698;2023-04-24T13:10:23;5.83;;;2.40;;
76606;SDS011;65498;50.916;4.698;2023-04-24T13:12:51;4.83;;;2.20;;
76606;SDS011;65498;50.916;4.698;2023-04-24T13:15:19;6.15;;;2.30;;
76606;SDS011;65498;50.916;4.698;2023-04-24T13:17:46;6.20;;;2.30;;
76606;SDS011;65498;50.916;4.698;2023-04-24T13:20:14;7.62;;;2.83;;
76606;SDS011;65498;50.916;4.698;2023-04-24T13:22:41;9.35;;;3.75;;
76606;SDS011;65498;50.916;4.698;2023-04-24T13:25:09;5.45;;;2.42;;
76606;SDS011;65498;50.916;4.698;2023-04-24T13:27:39;6.05;;;2.35;;
76606;SDS011;65498;50.916;4.698;2023-04-24T13:30:07;6.72;;;2.45;;
76606;SDS011;65498;50.916;4.698;2023-04-24T13:32:36;5.40;;;2.35;;
76606;SDS011;65498;50.916;4.698;2023-04-24T13:35:04;5.55;;;2.42;;
76606;SDS011;65498;50.916;4.698;2023-04-24T13:37:31;6.58;;;2.40;;
76606;SDS011;65498;50.916;4.698;2023-04-24T13:39:59;6.62;;;2.45;;
76606;SDS011;65498;50.916;4.698;2023-04-24T13:42:27;6.62;;;2.35;;
76606;SDS011;65498;50.916;4.698;2023-04-24T13:44:54;5.67;;;2.30;;
76606;SDS011;65498;50.916;4.698;2023-04-24T13:47:22;5.97;;;2.35;;
76606;SDS011;65498;50.916;4.698;2023-04-24T13:49:49;5.97;;;2.62;;
76606;SDS011;65498;50.916;4.698;2023-04-24T13:52:18;6.30;;;2.40;;
76606;SDS011;65498;50.916;4.698;2023-04-24T13:54:45;5.30;;;2.47;;
76606;SDS011;65498;50.916;4.698;2023-04-24T13:57:13;5.42;;;2.20;;
76606;SDS011;65498;50.916;4.698;2023-04-24T13:59:42;5.75;;;2.40;;
76606;SDS011;65498;50.916;4.698;2023-04-24T14:02:09;5.80;;;2.40;;
76606;SDS011;65498;50.916;4.698;2023-04-24T14:04:37;5.55;;;2.20;;
76606;SDS011;65498;50.916;4.698;2023-04-24T14:07:04;5.45;;;2.02;;
76606;SDS011;65498;50.916;4.698;2023-04-24T14:09:33;8.58;;;3.30;;
76606;SDS011;65498;50.916;4.698;2023-04-24T14:12:01;9.65;;;3.90;;
76606;SDS011;65498;50.916;4.698;2023-04-24T14:14:29;9.18;;;3.40;;
76606;SDS011;65498;50.916;4.698;2023-04-24T14:16:57;7.50;;;3.30;;
76606;SDS011;65498;50.916;4.698;2023-04-24T14:19:25;8.05;;;3.70;;
76606;SDS011;65498;50.916;4.698;2023-04-24T14:21:52;6.47;;;2.80;;
76606;SDS011;65498;50.916;4.698;2023-04-24T14:24:21;7.40;;;3.10;;
76606;SDS011;65498;50.916;4.698;2023-04-24T14:26:49;6.90;;;3.17;;
76606;SDS011;65498;50.916;4.698;2023-04-24T14:29:16;8.48;;;3.05;;
76606;SDS011;65498;50.916;4.698;2023-04-24T14:31:45;9.35;;;3.00;;
76606;SDS011;65498;50.916;4.698;2023-04-24T14:34:13;8.45;;;3.35;;
76606;SDS011;65498;50.916;4.698;2023-04-24T14:36:41;5.67;;;2.55;;
76606;SDS011;65498;50.916;4.698;2023-04-24T14:39:10;8.35;;;2.95;;
76606;SDS011;65498;50.916;4.698;2023-04-24T14:41:38;7.20;;;2.90;;
76606;SDS011;65498;50.916;4.698;2023-04-24T14:44:06;7.87;;;3.00;;
76606;SDS011;65498;50.916;4.698;2023-04-24T14:46:33;7.25;;;3.50;;
76606;SDS011;65498;50.916;4.698;2023-04-24T14:49:01;9.03;;;3.72;;
76606;SDS011;65498;50.916;4.698;2023-04-24T14:51:28;7.55;;;2.98;;
76606;SDS011;65498;50.916;4.698;2023-04-24T14:53:56;7.92;;;2.70;;
76606;SDS011;65498;50.916;4.698;2023-04-24T14:56:24;7.15;;;2.70;;
76606;SDS011;65498;50.916;4.698;2023-04-24T14:58:52;6.50;;;2.90;;
76606;SDS011;65498;50.916;4.698;2023-04-24T15:01:19;9.90;;;3.40;;
76606;SDS011;65498;50.916;4.698;2023-04-24T15:03:48;8.93;;;3.47;;
76606;SDS011;65498;50.916;4.698;2023-04-24T15:06:15;7.83;;;3.00;;
76606;SDS011;65498;50.916;4.698;2023-04-24T15:08:43;8.93;;;3.30;;
76606;SDS011;65498;50.916;4.698;2023-04-24T15:11:10;6.35;;;2.90;;
76606;SDS011;65498;50.916;4.698;2023-04-24T15:13:38;7.50;;;2.90;;
76606;SDS011;65498;50.916;4.698;2023-04-24T15:16:05;7.65;;;3.40;;